createdAt,value
2022-12-11T00:01:34.453Z,12.33
2022-12-11T00:04:22.908Z,12.60
2022-12-11T00:07:12.542Z,12.10
2022-12-11T00:10:02.432Z,11.77
2022-12-11T00:12:50.824Z,11.50
2022-12-11T00:15:39.442Z,12.17
2022-12-11T00:18:27.955Z,11.30
2022-12-11T00:21:16.445Z,11.97
2022-12-11T00:24:05.620Z,11.23
2022-12-11T00:26:55.364Z,11.30
2022-12-11T00:29:43.946Z,11.73
2022-12-11T00:32:37.460Z,11.80
2022-12-11T00:35:26.434Z,12.60
2022-12-11T00:38:15.810Z,12.13
2022-12-11T00:41:04.219Z,11.50
2022-12-11T00:43:53.934Z,12.23
2022-12-11T00:46:42.328Z,12.37
2022-12-11T00:49:31.833Z,11.40
2022-12-11T00:52:20.238Z,12.40
2022-12-11T00:55:09.583Z,11.50
2022-12-11T00:57:58.780Z,12.10
2022-12-11T01:00:49.937Z,13.10
2022-12-11T01:03:38.431Z,11.90
2022-12-11T01:06:27.935Z,11.43
2022-12-11T01:09:34.020Z,12.43
2022-12-11T01:12:22.486Z,10.93
2022-12-11T01:15:12.026Z,11.97
2022-12-11T01:18:02.209Z,11.90
2022-12-11T01:20:50.647Z,12.43
2022-12-11T01:23:39.208Z,11.80
2022-12-11T01:26:27.606Z,11.87
2022-12-11T01:29:16.388Z,12.13
2022-12-11T01:32:05.243Z,12.60
2022-12-11T01:34:54.978Z,12.03
2022-12-11T01:37:43.462Z,11.87
2022-12-11T01:40:31.923Z,12.40
2022-12-11T01:43:20.372Z,12.37
2022-12-11T01:46:08.784Z,13.33
2022-12-11T01:48:57.279Z,13.10
2022-12-11T01:51:51.705Z,12.67
2022-12-11T01:54:40.141Z,12.23
2022-12-11T01:57:28.567Z,13.60
2022-12-11T02:00:17.995Z,13.63
2022-12-11T02:03:06.385Z,13.47
2022-12-11T02:05:54.815Z,14.50
2022-12-11T02:08:44.598Z,14.27
2022-12-11T02:11:48.935Z,14.03
2022-12-11T02:14:43.964Z,12.77
2022-12-11T02:17:35.955Z,13.40
2022-12-11T02:20:26.778Z,13.00
2022-12-11T02:23:40.130Z,13.40
2022-12-11T02:26:52.898Z,12.33
2022-12-11T02:29:46.161Z,12.70
2022-12-11T02:32:39.361Z,13.47
2022-12-11T02:35:31.523Z,13.30
2022-12-11T02:38:24.992Z,13.17
2022-12-11T02:41:13.383Z,12.67
2022-12-11T02:44:02.506Z,13.77
2022-12-11T02:46:52.386Z,14.73
2022-12-11T02:49:41.271Z,13.83
2022-12-11T02:52:29.642Z,15.20
2022-12-11T02:55:18.155Z,14.93
2022-12-11T02:58:08.468Z,15.03
2022-12-11T03:00:56.955Z,14.57
2022-12-11T03:03:46.806Z,13.80
2022-12-11T03:06:38.434Z,15.33
2022-12-11T03:09:26.920Z,14.53
2022-12-11T03:12:18.563Z,13.53
2022-12-11T03:15:10.106Z,14.57
2022-12-11T03:18:03.530Z,15.23
2022-12-11T03:20:57.755Z,14.60
2022-12-11T03:23:51.260Z,13.73
2022-12-11T03:26:42.828Z,15.00
2022-12-11T03:29:33.362Z,15.40
2022-12-11T03:32:23.667Z,15.63
2022-12-11T03:35:15.539Z,17.03
2022-12-11T03:38:07.376Z,16.90
2022-12-11T03:40:58.205Z,15.07
2022-12-11T03:43:46.599Z,17.80
2022-12-11T03:46:37.745Z,15.77
2022-12-11T03:49:28.598Z,16.57
2022-12-11T03:52:17.010Z,17.60
2022-12-11T03:55:08.090Z,15.70
2022-12-11T03:57:56.676Z,15.93
2022-12-11T04:00:45.243Z,16.67
2022-12-11T04:03:33.696Z,15.13
2022-12-11T04:06:22.110Z,15.20
2022-12-11T04:09:10.505Z,15.80
2022-12-11T04:12:00.214Z,17.13
2022-12-11T04:15:03.658Z,17.00
2022-12-11T04:18:09.826Z,15.47
2022-12-11T04:21:15.977Z,16.93
2022-12-11T04:24:17.471Z,16.77
2022-12-11T04:27:07.569Z,18.67
2022-12-11T04:29:55.976Z,18.20
2022-12-11T04:32:44.434Z,17.50
2022-12-11T04:35:32.849Z,16.93
2022-12-11T04:38:21.284Z,17.07
2022-12-11T04:41:12.492Z,16.27
2022-12-11T04:44:02.361Z,16.53
2022-12-11T04:46:50.760Z,15.90
2022-12-11T04:49:39.269Z,16.53
2022-12-11T04:52:27.729Z,16.70
2022-12-11T04:55:16.134Z,16.60
2022-12-11T04:58:04.527Z,16.47
2022-12-11T05:00:54.416Z,16.17
2022-12-11T05:03:43.300Z,16.67
2022-12-11T05:06:31.684Z,15.07
2022-12-11T05:09:20.112Z,16.17
2022-12-11T05:12:09.173Z,16.97
2022-12-11T05:14:57.573Z,17.27
2022-12-11T05:17:47.322Z,17.47
2022-12-11T05:20:35.742Z,18.63
2022-12-11T05:23:24.163Z,17.87
2022-12-11T05:26:14.272Z,19.23
2022-12-11T05:29:02.718Z,17.97
2022-12-11T05:31:51.363Z,18.50
2022-12-11T05:34:41.212Z,18.63
2022-12-11T05:37:29.914Z,18.47
2022-12-11T05:40:18.663Z,19.00
2022-12-11T05:43:07.083Z,19.50
2022-12-11T05:45:55.761Z,19.53
2022-12-11T05:48:44.431Z,19.27
2022-12-11T05:51:35.067Z,20.23
2022-12-11T05:54:23.517Z,19.33
2022-12-11T05:57:11.956Z,20.63
2022-12-11T06:00:00.406Z,19.93
2022-12-11T06:02:49.267Z,18.07
2022-12-11T06:05:39.171Z,18.30
2022-12-11T06:08:28.978Z,19.00
2022-12-11T06:11:23.606Z,18.97
2022-12-11T06:14:13.859Z,19.77
2022-12-11T06:17:02.532Z,17.87
2022-12-11T06:19:50.942Z,20.60
2022-12-11T06:22:39.373Z,20.07
2022-12-11T06:25:29.169Z,18.70
2022-12-11T06:28:17.572Z,19.87
2022-12-11T06:31:06.463Z,18.67
2022-12-11T06:33:55.045Z,20.40
2022-12-11T06:36:43.485Z,19.90
2022-12-11T06:39:32.071Z,19.83
2022-12-11T06:42:21.829Z,20.37
2022-12-11T06:45:12.044Z,19.13
2022-12-11T06:48:00.680Z,20.97
2022-12-11T06:50:49.135Z,19.90
2022-12-11T06:53:37.553Z,18.63
2022-12-11T06:56:25.970Z,19.87
2022-12-11T06:59:15.741Z,19.20
2022-12-11T07:02:04.248Z,20.43
2022-12-11T07:04:32.358Z,18.57
2022-12-11T07:07:00.658Z,20.63
2022-12-11T07:09:29.373Z,20.20
2022-12-11T07:11:57.716Z,19.20
2022-12-11T07:14:27.211Z,18.73
2022-12-11T07:16:55.357Z,19.47
2022-12-11T07:19:23.490Z,19.93
2022-12-11T07:21:51.632Z,18.93
2022-12-11T07:24:19.856Z,18.97
2022-12-11T07:26:47.964Z,19.67
2022-12-11T07:29:16.067Z,20.27
2022-12-11T07:31:45.532Z,19.83
2022-12-11T07:34:13.889Z,20.73
2022-12-11T07:36:42.024Z,23.57
2022-12-11T07:39:11.874Z,22.90
2022-12-11T07:41:40.077Z,23.37
2022-12-11T07:44:12.157Z,23.83
2022-12-11T07:46:40.529Z,23.80
2022-12-11T07:49:10.082Z,22.90
2022-12-11T07:51:39.278Z,23.03
2022-12-11T07:54:09.697Z,22.33
2022-12-11T07:56:37.822Z,21.23
2022-12-11T07:59:06.587Z,25.23
2022-12-11T08:01:36.826Z,24.10
2022-12-11T08:04:05.841Z,22.47
2022-12-11T08:06:36.584Z,21.07
2022-12-11T08:09:06.411Z,21.83
2022-12-11T08:11:34.915Z,21.13
2022-12-11T08:14:03.481Z,22.47
2022-12-11T08:16:31.661Z,21.77
2022-12-11T08:18:59.936Z,23.23
2022-12-11T08:21:28.609Z,22.37
2022-12-11T08:23:58.153Z,20.57
2022-12-11T08:26:29.760Z,20.57
2022-12-11T08:28:57.937Z,23.33
2022-12-11T08:31:26.299Z,22.10
2022-12-11T08:33:55.600Z,20.33
2022-12-11T08:36:24.028Z,20.77
2022-12-11T08:38:52.387Z,20.90
2022-12-11T08:41:23.594Z,19.83
2022-12-11T08:43:54.738Z,20.67
2022-12-11T08:46:24.299Z,22.03
2022-12-11T08:48:52.586Z,22.87
2022-12-11T08:51:23.083Z,22.10
2022-12-11T08:53:51.806Z,21.33
2022-12-11T08:56:23.625Z,20.57
2022-12-11T08:58:52.263Z,21.90
2022-12-11T09:01:22.434Z,22.60
2022-12-11T09:03:50.988Z,22.67
2022-12-11T09:06:21.450Z,22.93
2022-12-11T09:08:52.628Z,21.33
2022-12-11T09:11:23.983Z,20.87
2022-12-11T09:13:52.227Z,23.97
2022-12-11T09:16:21.878Z,22.97
2022-12-11T09:18:51.220Z,22.80
2022-12-11T09:21:20.924Z,21.80
2022-12-11T09:23:49.122Z,20.07
2022-12-11T09:26:18.470Z,22.20
2022-12-11T09:28:48.087Z,22.67
2022-12-11T09:31:17.539Z,21.93
2022-12-11T09:33:45.860Z,23.27
2022-12-11T09:36:14.105Z,21.23
2022-12-11T09:38:43.341Z,22.00
2022-12-11T09:41:30.964Z,22.20
2022-12-11T09:44:08.576Z,22.60
2022-12-11T09:46:36.922Z,23.33
2022-12-11T09:49:05.787Z,22.60
2022-12-11T09:51:37.707Z,21.13
2022-12-11T09:54:06.164Z,22.10
2022-12-11T09:56:35.506Z,22.43
2022-12-11T09:59:09.306Z,22.77
2022-12-11T10:01:41.735Z,22.07
2022-12-11T10:04:27.493Z,19.50
2022-12-11T10:07:03.296Z,20.77
2022-12-11T10:09:37.229Z,23.00
2022-12-11T10:12:16.677Z,20.73
2022-12-11T10:14:57.124Z,21.70
2022-12-11T10:17:29.608Z,22.00
2022-12-11T10:19:57.951Z,22.10
2022-12-11T10:22:28.356Z,22.73
2022-12-11T10:25:10.702Z,21.83
2022-12-11T10:27:40.785Z,21.50
2022-12-11T10:30:17.708Z,22.77
2022-12-11T10:32:52.773Z,22.27
2022-12-11T10:35:29.187Z,22.53
2022-12-11T10:37:58.405Z,23.67
2022-12-11T10:40:27.169Z,23.37
2022-12-11T10:42:55.518Z,24.47
2022-12-11T10:45:25.156Z,22.43
2022-12-11T10:48:04.220Z,24.53
2022-12-11T10:50:32.494Z,23.73
2022-12-11T10:53:00.702Z,26.30
2022-12-11T10:55:30.259Z,30.10
2022-12-11T10:58:01.718Z,25.33
2022-12-11T11:00:39.291Z,25.73
2022-12-11T11:03:08.997Z,26.33
2022-12-11T11:05:38.349Z,23.73
2022-12-11T11:08:15.765Z,22.67
2022-12-11T11:10:54.683Z,22.70
2022-12-11T11:13:23.392Z,24.50
2022-12-11T11:15:59.783Z,22.93
2022-12-11T11:18:28.754Z,22.27
2022-12-11T11:20:56.912Z,21.50
2022-12-11T11:23:25.641Z,22.27
2022-12-11T11:25:55.575Z,23.30
2022-12-11T11:28:25.603Z,25.67
2022-12-11T11:31:04.043Z,22.97
2022-12-11T11:33:32.896Z,22.83
2022-12-11T11:36:03.310Z,22.47
2022-12-11T11:38:33.870Z,21.83
2022-12-11T11:41:14.673Z,22.43
2022-12-11T11:43:46.416Z,22.83
2022-12-11T11:46:19.273Z,23.10
2022-12-11T11:48:53.570Z,23.43
2022-12-11T11:51:25.845Z,24.13
2022-12-11T11:53:56.339Z,24.57
2022-12-11T11:56:27.540Z,24.53
2022-12-11T11:59:02.581Z,22.07
2022-12-11T12:01:32.160Z,22.90
2022-12-11T12:04:00.287Z,23.83
2022-12-11T12:06:37.969Z,22.77
2022-12-11T12:09:17.040Z,23.97
2022-12-11T12:11:49.460Z,23.80
2022-12-11T12:14:51.019Z,25.60
2022-12-11T12:17:17.748Z,22.50
2022-12-11T12:19:53.072Z,22.33
2022-12-11T12:22:35.352Z,22.67
2022-12-11T12:25:11.685Z,23.33
2022-12-11T12:27:51.948Z,23.00
2022-12-11T12:30:23.368Z,23.23
2022-12-11T12:33:08.240Z,24.40
2022-12-11T12:35:38.097Z,22.40
2022-12-11T12:38:12.486Z,23.63
2022-12-11T12:40:49.844Z,23.67
2022-12-11T12:43:48.966Z,22.77
2022-12-11T12:46:28.969Z,22.93
2022-12-11T12:48:58.769Z,22.80
2022-12-11T12:51:27.135Z,23.87
2022-12-11T12:53:57.930Z,24.00
2022-12-11T12:56:26.205Z,22.63
2022-12-11T12:58:54.476Z,22.50
2022-12-11T13:01:23.743Z,22.40
2022-12-11T13:03:56.118Z,23.17
2022-12-11T13:06:35.544Z,22.40
2022-12-11T13:09:18.660Z,24.27
2022-12-11T13:11:49.920Z,25.73
2022-12-11T13:14:30.301Z,26.33
2022-12-11T13:17:25.030Z,39.10
2022-12-11T13:20:10.907Z,33.73
2022-12-11T13:22:50.023Z,46.50
2022-12-11T13:25:31.442Z,27.70
2022-12-11T13:28:09.191Z,23.87
2022-12-11T13:30:37.346Z,21.20
2022-12-11T13:33:07.204Z,25.33
2022-12-11T13:35:35.768Z,20.90
2022-12-11T13:38:16.551Z,23.27
2022-12-11T13:40:44.910Z,29.03
2022-12-11T13:43:20.034Z,26.03
2022-12-11T13:45:50.571Z,23.53
2022-12-11T13:48:25.203Z,24.13
2022-12-11T13:50:53.447Z,24.03
2022-12-11T13:53:23.586Z,24.83
2022-12-11T13:55:58.548Z,23.50
2022-12-11T13:58:27.142Z,24.17
2022-12-11T14:01:06.005Z,24.23
2022-12-11T14:03:34.187Z,24.13
2022-12-11T14:06:02.632Z,23.37
2022-12-11T14:08:36.046Z,23.00
2022-12-11T14:11:04.302Z,22.07
2022-12-11T14:13:34.405Z,23.47
2022-12-11T14:16:02.831Z,25.90
2022-12-11T14:18:32.766Z,23.17
2022-12-11T14:21:02.706Z,23.07
2022-12-11T14:23:32.915Z,23.50
2022-12-11T14:26:02.213Z,23.30
2022-12-11T14:28:37.011Z,23.07
2022-12-11T14:31:05.735Z,22.13
2022-12-11T14:33:36.340Z,22.83
2022-12-11T14:36:04.771Z,22.60
2022-12-11T14:38:36.685Z,21.23
2022-12-11T14:41:11.960Z,22.33
2022-12-11T14:43:43.786Z,22.87
2022-12-11T14:46:18.166Z,21.63
2022-12-11T14:48:49.130Z,20.77
2022-12-11T14:51:18.787Z,21.67
2022-12-11T14:53:49.318Z,21.83
2022-12-11T14:56:21.099Z,23.20
2022-12-11T14:58:54.717Z,20.70
2022-12-11T15:01:25.186Z,21.60
2022-12-11T15:04:04.196Z,21.23
2022-12-11T15:06:33.670Z,21.93
2022-12-11T15:09:21.078Z,21.03
2022-12-11T15:11:50.023Z,23.33
2022-12-11T15:14:19.619Z,21.47
2022-12-11T15:16:48.199Z,21.40
2022-12-11T15:19:21.229Z,21.90
2022-12-11T15:21:49.382Z,20.50
2022-12-11T15:24:27.250Z,20.37
2022-12-11T15:26:58.933Z,20.53
2022-12-11T15:29:33.196Z,21.00
2022-12-11T15:32:14.428Z,21.17
2022-12-11T15:34:45.278Z,22.73
2022-12-11T15:37:24.516Z,21.27
2022-12-11T15:39:54.695Z,22.17
2022-12-11T15:42:27.695Z,21.90
2022-12-11T15:44:56.456Z,22.10
2022-12-11T15:47:26.478Z,22.83
2022-12-11T15:49:55.722Z,21.30
2022-12-11T15:52:25.124Z,21.10
2022-12-11T15:54:54.691Z,19.47
2022-12-11T15:57:24.554Z,19.40
2022-12-11T15:59:53.834Z,20.83
2022-12-11T16:02:22.153Z,19.97
2022-12-11T16:04:50.766Z,20.57
2022-12-11T16:07:21.118Z,21.70
2022-12-11T16:09:49.343Z,20.87
2022-12-11T16:12:19.004Z,20.93
2022-12-11T16:14:47.331Z,21.20
2022-12-11T16:17:16.314Z,19.97
2022-12-11T16:19:44.910Z,19.77
2022-12-11T16:22:13.676Z,21.77
2022-12-11T16:24:42.037Z,21.63
2022-12-11T16:27:10.455Z,20.30
2022-12-11T16:29:41.334Z,20.10
2022-12-11T16:32:09.536Z,19.93
2022-12-11T16:34:38.213Z,19.97
2022-12-11T16:37:06.513Z,20.77
2022-12-11T16:39:34.682Z,19.70
2022-12-11T16:42:02.838Z,22.50
2022-12-11T16:44:31.073Z,20.33
2022-12-11T16:47:00.609Z,20.70
2022-12-11T16:49:28.850Z,20.10
2022-12-11T16:51:57.014Z,19.10
2022-12-11T16:54:25.454Z,17.57
2022-12-11T16:56:53.941Z,18.80
2022-12-11T16:59:22.131Z,16.67
2022-12-11T17:01:51.112Z,16.57
2022-12-11T17:04:20.609Z,16.30
2022-12-11T17:06:48.983Z,16.97
2022-12-11T17:09:17.028Z,13.90
2022-12-11T17:11:45.658Z,13.23
2022-12-11T17:14:13.876Z,14.03
2022-12-11T17:16:42.051Z,14.13
2022-12-11T17:19:11.547Z,14.90
2022-12-11T17:21:41.040Z,15.37
2022-12-11T17:24:10.401Z,17.43
2022-12-11T17:26:39.253Z,15.60
2022-12-11T17:29:07.524Z,16.43
2022-12-11T17:31:35.717Z,15.57
2022-12-11T17:34:03.998Z,16.63
2022-12-11T17:36:32.244Z,16.27
2022-12-11T17:39:01.708Z,15.23
2022-12-11T17:41:29.905Z,16.00
2022-12-11T17:43:58.087Z,15.97
2022-12-11T17:46:26.287Z,16.33
2022-12-11T17:48:54.565Z,16.53
2022-12-11T17:51:24.393Z,15.93
2022-12-11T17:53:53.671Z,15.77
2022-12-11T17:56:23.834Z,16.47
2022-12-11T17:58:52.016Z,15.20
2022-12-11T18:01:20.407Z,16.20
2022-12-11T18:03:48.667Z,18.00
2022-12-11T18:06:17.108Z,15.47
2022-12-11T18:08:46.029Z,16.20
2022-12-11T18:11:16.700Z,14.60
2022-12-11T18:13:46.273Z,14.40
2022-12-11T18:16:16.781Z,14.73
2022-12-11T18:18:46.167Z,14.00
2022-12-11T18:21:14.694Z,13.30
2022-12-11T18:23:42.911Z,13.40
2022-12-11T18:26:14.366Z,14.27
2022-12-11T18:28:42.639Z,14.23
2022-12-11T18:31:13.442Z,13.90
2022-12-11T18:33:42.826Z,13.17
2022-12-11T18:36:11.813Z,15.57
2022-12-11T18:38:40.072Z,13.57
2022-12-11T18:41:09.663Z,15.23
2022-12-11T18:43:37.943Z,13.87
2022-12-11T18:46:07.605Z,14.90
2022-12-11T18:48:37.285Z,14.63
2022-12-11T18:51:07.844Z,14.40
2022-12-11T18:53:36.303Z,15.37
2022-12-11T18:56:07.387Z,17.30
2022-12-11T18:58:36.059Z,14.97
2022-12-11T19:01:08.517Z,13.60
2022-12-11T19:03:38.251Z,11.60
2022-12-11T19:06:11.122Z,11.93
2022-12-11T19:08:39.308Z,11.87
2022-12-11T19:11:07.997Z,12.23
2022-12-11T19:13:36.322Z,12.07
2022-12-11T19:16:05.263Z,11.70
2022-12-11T19:18:33.514Z,11.37
2022-12-11T19:21:08.804Z,12.17
2022-12-11T19:23:37.634Z,12.53
2022-12-11T19:26:07.526Z,13.30
2022-12-11T19:28:35.822Z,12.57
2022-12-11T19:31:04.039Z,15.03
2022-12-11T19:33:32.268Z,15.07
2022-12-11T19:36:05.735Z,12.77
2022-12-11T19:38:33.967Z,14.53
2022-12-11T19:41:06.663Z,15.43
2022-12-11T19:43:34.925Z,14.73
2022-12-11T19:46:03.160Z,15.20
2022-12-11T19:48:31.442Z,13.47
2022-12-11T19:51:06.439Z,12.73
2022-12-11T19:53:34.975Z,13.30
2022-12-11T19:56:03.275Z,12.63
2022-12-11T19:58:31.507Z,12.40
2022-12-11T20:01:00.027Z,12.83
2022-12-11T20:03:29.295Z,12.60
2022-12-11T20:06:01.378Z,12.63
2022-12-11T20:08:46.521Z,19.20
2022-12-11T20:11:18.332Z,14.33
2022-12-11T20:13:47.466Z,11.23
2022-12-11T20:16:15.941Z,9.93
2022-12-11T20:18:44.273Z,13.23
2022-12-11T20:21:14.377Z,12.07
2022-12-11T20:23:44.136Z,11.23
2022-12-11T20:26:14.305Z,13.20
2022-12-11T20:28:44.892Z,12.50
2022-12-11T20:31:19.724Z,11.07
2022-12-11T20:33:48.908Z,11.23
2022-12-11T20:36:18.238Z,9.90
2022-12-11T20:38:48.039Z,9.60
2022-12-11T20:41:18.896Z,10.30
2022-12-11T20:43:48.909Z,8.83
2022-12-11T20:46:18.442Z,7.63
2022-12-11T20:48:47.143Z,8.60
2022-12-11T20:51:20.999Z,7.87
2022-12-11T20:53:57.480Z,7.43
2022-12-11T20:56:26.891Z,8.27
2022-12-11T20:58:55.003Z,8.33
2022-12-11T21:01:25.634Z,8.60
2022-12-11T21:04:12.393Z,9.13
2022-12-11T21:07:00.862Z,9.57
2022-12-11T21:09:50.886Z,9.43
2022-12-11T21:12:39.274Z,7.60
2022-12-11T21:15:27.688Z,6.93
2022-12-11T21:18:16.066Z,6.67
2022-12-11T21:21:04.865Z,8.07
2022-12-11T21:23:53.263Z,8.13
2022-12-11T21:26:43.015Z,6.43
2022-12-11T21:29:31.456Z,8.43
2022-12-11T21:32:20.131Z,8.93
2022-12-11T21:35:09.830Z,7.63
2022-12-11T21:37:58.292Z,6.83
2022-12-11T21:40:46.692Z,7.27
2022-12-11T21:43:40.054Z,7.33
2022-12-11T21:46:36.786Z,7.90
2022-12-11T21:49:25.221Z,7.83
2022-12-11T21:52:13.873Z,8.63
2022-12-11T21:55:02.271Z,8.77
2022-12-11T21:57:50.989Z,10.80
2022-12-11T22:00:40.952Z,13.40
2022-12-11T22:03:29.478Z,15.30
2022-12-11T22:06:18.005Z,11.00
2022-12-11T22:09:06.456Z,11.47
2022-12-11T22:11:58.326Z,10.43
2022-12-11T22:14:47.220Z,11.77
2022-12-11T22:17:37.385Z,11.10
2022-12-11T22:20:25.879Z,13.10
2022-12-11T22:23:14.270Z,13.23
2022-12-11T22:26:02.680Z,12.43
2022-12-11T22:28:51.126Z,13.77
2022-12-11T22:31:39.537Z,12.77
2022-12-11T22:34:29.307Z,14.23
2022-12-11T22:37:17.716Z,14.60
2022-12-11T22:40:07.430Z,14.77
2022-12-11T22:42:55.820Z,17.23
2022-12-11T22:45:45.370Z,21.73
2022-12-11T22:48:33.787Z,15.30
2022-12-11T22:51:23.798Z,16.03
2022-12-11T22:54:12.440Z,20.37
2022-12-11T22:57:01.253Z,18.43
2022-12-11T22:59:49.672Z,20.23
2022-12-11T23:02:38.542Z,20.23
2022-12-11T23:05:27.098Z,21.17
2022-12-11T23:08:16.916Z,22.00
2022-12-11T23:11:12.499Z,19.27
2022-12-11T23:14:01.142Z,21.43
2022-12-11T23:16:49.538Z,19.27
2022-12-11T23:19:37.990Z,20.40
2022-12-11T23:22:27.510Z,20.00
2022-12-11T23:25:18.992Z,21.97
2022-12-11T23:28:07.404Z,21.33
2022-12-11T23:30:55.918Z,20.27
2022-12-11T23:33:44.637Z,21.03
2022-12-11T23:36:33.581Z,20.97
2022-12-11T23:39:21.999Z,21.20
2022-12-11T23:42:11.774Z,21.17
2022-12-11T23:45:00.187Z,20.60
2022-12-11T23:47:48.592Z,21.13
2022-12-11T23:50:36.974Z,20.50
2022-12-11T23:53:25.344Z,21.33
2022-12-11T23:56:15.508Z,21.50
2022-12-11T23:59:05.268Z,20.53
